AAL1715 KCLT-KDFW
Flight info
| Callsign | AAL1715 |
|---|---|
| Flight time | 2h 25m |
| Altitude | 36000 |
| Route | ESTRR5 IPTAY CHOPZ THRSR VLKNN Q30 IZAAC YUYUN BEREE3 |
| Aircraft | A321/M-SDFGHIJ4RWX/LB1 |
Departure
| Time | 2026-05-04 10:16 |
|---|---|
| Airport | Charlotte Douglas International Airport (KCLT) |
Arrival
| Time | 2026-05-04 12:41 |
|---|---|
| Airport | Dallas Fort Worth International Airport (KDFW) |
| Time | Latitude | Longitude | Altitude | Speed | Heading |
|---|---|---|---|---|---|
| 2026-05-04 10:00 | 35.21833 | -80.94483 | 763 ft | 0 kts | 284° |
| 2026-05-04 10:04 | 35.21826 | -80.94428 | 762 ft | 4 kts | 266° |
| 2026-05-04 10:04 | 35.21832 | -80.94397 | 762 ft | 4 kts | 233° |
| 2026-05-04 10:04 | 35.21845 | -80.94385 | 762 ft | 0 kts | 187° |
| 2026-05-04 10:09 | 35.21844 | -80.94385 | 762 ft | 0 kts | 187° |
| 2026-05-04 10:09 | 35.21838 | -80.94386 | 762 ft | 3 kts | 187° |
| 2026-05-04 10:09 | 35.21808 | -80.94390 | 762 ft | 6 kts | 187° |
| 2026-05-04 10:09 | 35.21756 | -80.94394 | 762 ft | 9 kts | 178° |
| 2026-05-04 10:10 | 35.21682 | -80.94388 | 762 ft | 12 kts | 175° |
| 2026-05-04 10:10 | 35.21635 | -80.94356 | 762 ft | 9 kts | 99° |
| 2026-05-04 10:10 | 35.21635 | -80.94270 | 762 ft | 12 kts | 95° |
| 2026-05-04 10:10 | 35.21648 | -80.94164 | 762 ft | 14 kts | 55° |
| 2026-05-04 10:11 | 35.21719 | -80.94063 | 762 ft | 17 kts | 48° |
| 2026-05-04 10:11 | 35.21806 | -80.93946 | 762 ft | 20 kts | 48° |
| 2026-05-04 10:11 | 35.21902 | -80.93817 | 762 ft | 13 kts | 46° |
| 2026-05-04 10:11 | 35.21968 | -80.93733 | 762 ft | 10 kts | 44° |
| 2026-05-04 10:12 | 35.22041 | -80.93708 | 762 ft | 13 kts | 359° |
| 2026-05-04 10:12 | 35.22140 | -80.93714 | 762 ft | 16 kts | 356° |
| 2026-05-04 10:12 | 35.22259 | -80.93726 | 762 ft | 19 kts | 355° |
| 2026-05-04 10:12 | 35.22375 | -80.93736 | 762 ft | 14 kts | 356° |
| 2026-05-04 10:13 | 35.22456 | -80.93742 | 762 ft | 10 kts | 356° |
| 2026-05-04 10:13 | 35.22507 | -80.93712 | 762 ft | 10 kts | 80° |
| 2026-05-04 10:13 | 35.22503 | -80.93634 | 762 ft | 9 kts | 131° |
| 2026-05-04 10:13 | 35.22412 | -80.93612 | 762 ft | 28 kts | 175° |
| 2026-05-04 10:14 | 35.21948 | -80.93570 | 763 ft | 105 kts | 176° |
| 2026-05-04 10:14 | 35.20995 | -80.93487 | 771 ft | 165 kts | 176° |
| 2026-05-04 10:16 | 35.11834 | -80.92248 | 4010 ft | 242 kts | 176° |
| 2026-05-04 10:16 | 35.10111 | -80.92023 | 4517 ft | 256 kts | 176° |
| 2026-05-04 10:16 | 35.08305 | -80.91794 | 5132 ft | 264 kts | 176° |
| 2026-05-04 10:16 | 35.06463 | -80.91558 | 5862 ft | 268 kts | 176° |
| 2026-05-04 10:17 | 35.04594 | -80.91418 | 6570 ft | 270 kts | 187° |
| 2026-05-04 10:17 | 35.02803 | -80.92045 | 7235 ft | 269 kts | 212° |
| 2026-05-04 10:19 | 35.01536 | -81.07571 | 11150 ft | 315 kts | 276° |
| 2026-05-04 10:19 | 35.01717 | -81.10314 | 11348 ft | 333 kts | 276° |
| 2026-05-04 10:19 | 35.01906 | -81.13201 | 11539 ft | 350 kts | 276° |
| 2026-05-04 10:19 | 35.02115 | -81.16218 | 11782 ft | 363 kts | 276° |
| 2026-05-04 10:20 | 35.02333 | -81.19271 | 12290 ft | 367 kts | 276° |
| 2026-05-04 10:20 | 35.02556 | -81.22376 | 12916 ft | 368 kts | 276° |
| 2026-05-04 10:20 | 35.02776 | -81.25494 | 13511 ft | 370 kts | 276° |
| 2026-05-04 10:20 | 35.02995 | -81.28623 | 14078 ft | 371 kts | 276° |
| 2026-05-04 10:21 | 35.03216 | -81.31770 | 14638 ft | 373 kts | 276° |
| 2026-05-04 10:21 | 35.03434 | -81.34936 | 15187 ft | 375 kts | 276° |
| 2026-05-04 10:21 | 35.03653 | -81.38117 | 15722 ft | 377 kts | 276° |
| 2026-05-04 10:21 | 35.03873 | -81.41314 | 16246 ft | 379 kts | 275° |
| 2026-05-04 10:22 | 35.03867 | -81.47725 | 17233 ft | 385 kts | 261° |
| 2026-05-04 10:22 | 35.03060 | -81.50859 | 17727 ft | 389 kts | 251° |
| 2026-05-04 10:22 | 35.02019 | -81.53918 | 18209 ft | 392 kts | 249° |
| 2026-05-04 10:23 | 35.00915 | -81.56971 | 18657 ft | 394 kts | 249° |
| 2026-05-04 10:23 | 34.99817 | -81.60047 | 19094 ft | 397 kts | 250° |
| 2026-05-04 10:25 | 34.92302 | -81.82207 | 21796 ft | 417 kts | 242° |
| 2026-05-04 10:25 | 34.90719 | -81.85187 | 22161 ft | 421 kts | 240° |
| 2026-05-04 10:25 | 34.89059 | -81.88137 | 22488 ft | 424 kts | 239° |
| 2026-05-04 10:25 | 34.87361 | -81.91089 | 22815 ft | 426 kts | 239° |
| 2026-05-04 10:26 | 34.85659 | -81.94057 | 23135 ft | 428 kts | 239° |
| 2026-05-04 10:26 | 34.83971 | -81.97052 | 23457 ft | 430 kts | 240° |
| 2026-05-04 10:26 | 34.82318 | -82.00041 | 23759 ft | 432 kts | 240° |
| 2026-05-04 10:26 | 34.80637 | -82.03085 | 24042 ft | 435 kts | 240° |
| 2026-05-04 10:27 | 34.78935 | -82.06140 | 24340 ft | 438 kts | 240° |
| 2026-05-04 10:27 | 34.77214 | -82.09210 | 24657 ft | 439 kts | 240° |
| 2026-05-04 10:27 | 34.75492 | -82.12282 | 24969 ft | 441 kts | 240° |
| 2026-05-04 10:27 | 34.73760 | -82.15366 | 25275 ft | 442 kts | 240° |
| 2026-05-04 10:28 | 34.72026 | -82.18457 | 25565 ft | 443 kts | 240° |
| 2026-05-04 10:28 | 34.70285 | -82.21554 | 25847 ft | 445 kts | 240° |
| 2026-05-04 10:28 | 34.68536 | -82.24664 | 26119 ft | 446 kts | 240° |
| 2026-05-04 10:28 | 34.66811 | -82.27736 | 26380 ft | 447 kts | 240° |
| 2026-05-04 10:29 | 34.65053 | -82.30863 | 26626 ft | 449 kts | 240° |
| 2026-05-04 10:29 | 34.63296 | -82.33982 | 27006 ft | 447 kts | 240° |
| 2026-05-04 10:29 | 34.61541 | -82.37086 | 27349 ft | 445 kts | 240° |
| 2026-05-04 10:29 | 34.59789 | -82.40178 | 27696 ft | 444 kts | 240° |
| 2026-05-04 10:30 | 34.58042 | -82.43259 | 28035 ft | 442 kts | 240° |
| 2026-05-04 10:30 | 34.56306 | -82.46335 | 28367 ft | 441 kts | 240° |
| 2026-05-04 10:30 | 34.54580 | -82.49396 | 28692 ft | 440 kts | 240° |
| 2026-05-04 10:30 | 34.52855 | -82.52447 | 29046 ft | 437 kts | 240° |
| 2026-05-04 10:31 | 34.51156 | -82.55439 | 29364 ft | 436 kts | 240° |
| 2026-05-04 10:31 | 34.49436 | -82.58461 | 29685 ft | 435 kts | 240° |
| 2026-05-04 10:32 | 34.39214 | -82.76416 | 31364 ft | 429 kts | 241° |
| 2026-05-04 10:33 | 34.37511 | -82.79380 | 31615 ft | 429 kts | 241° |
| 2026-05-04 10:33 | 34.35833 | -82.82301 | 31883 ft | 427 kts | 241° |
| 2026-05-04 10:33 | 34.34141 | -82.85258 | 32121 ft | 427 kts | 241° |
| 2026-05-04 10:33 | 34.32461 | -82.88210 | 32374 ft | 426 kts | 241° |
| 2026-05-04 10:34 | 34.30780 | -82.91159 | 32578 ft | 426 kts | 242° |
| 2026-05-04 10:34 | 34.29096 | -82.94093 | 32824 ft | 425 kts | 241° |
| 2026-05-04 10:34 | 34.27401 | -82.97023 | 33058 ft | 424 kts | 241° |
| 2026-05-04 10:34 | 34.25708 | -82.99932 | 33324 ft | 423 kts | 241° |
| 2026-05-04 10:35 | 34.24026 | -83.02849 | 33499 ft | 423 kts | 242° |
| 2026-05-04 10:35 | 34.22373 | -83.05722 | 33730 ft | 422 kts | 242° |
| 2026-05-04 10:35 | 34.20700 | -83.08628 | 33939 ft | 421 kts | 242° |
| 2026-05-04 10:35 | 34.19032 | -83.11526 | 34160 ft | 420 kts | 242° |
| 2026-05-04 10:36 | 34.17368 | -83.14413 | 34358 ft | 419 kts | 242° |
| 2026-05-04 10:36 | 34.15698 | -83.17295 | 34524 ft | 419 kts | 241° |
| 2026-05-04 10:36 | 34.14027 | -83.20168 | 34729 ft | 418 kts | 241° |
| 2026-05-04 10:36 | 34.12358 | -83.23036 | 34893 ft | 417 kts | 241° |
| 2026-05-04 10:37 | 34.10694 | -83.25908 | 35069 ft | 417 kts | 241° |
| 2026-05-04 10:37 | 34.09040 | -83.28774 | 35259 ft | 416 kts | 242° |
| 2026-05-04 10:37 | 34.07409 | -83.31596 | 35415 ft | 416 kts | 241° |
| 2026-05-04 10:37 | 34.05752 | -83.34451 | 35571 ft | 416 kts | 241° |
| 2026-05-04 10:39 | 33.95805 | -83.51510 | 36141 ft | 413 kts | 241° |
| 2026-05-04 10:39 | 33.94151 | -83.54345 | 36146 ft | 414 kts | 241° |
| 2026-05-04 10:40 | 33.90861 | -83.59966 | 36151 ft | 413 kts | 241° |
| 2026-05-04 10:40 | 33.87552 | -83.65632 | 36153 ft | 413 kts | 241° |
| 2026-05-04 10:41 | 33.84772 | -83.71574 | 36130 ft | 403 kts | 253° |
| 2026-05-04 10:41 | 33.82879 | -83.77902 | 36095 ft | 402 kts | 256° |
| 2026-05-04 10:42 | 33.81062 | -83.84213 | 36112 ft | 402 kts | 255° |
| 2026-05-04 10:42 | 33.79122 | -83.90526 | 36151 ft | 403 kts | 255° |
| 2026-05-04 10:43 | 33.77191 | -83.96848 | 36181 ft | 403 kts | 255° |
| 2026-05-04 10:45 | 33.69498 | -84.22101 | 36102 ft | 401 kts | 255° |
| 2026-05-04 10:45 | 33.67585 | -84.28343 | 36090 ft | 401 kts | 255° |
| 2026-05-04 10:46 | 33.65652 | -84.34632 | 36097 ft | 402 kts | 255° |
| 2026-05-04 10:46 | 33.63726 | -84.40960 | 36097 ft | 404 kts | 257° |
| 2026-05-04 10:47 | 33.62923 | -84.47556 | 36142 ft | 400 kts | 273° |
| 2026-05-04 10:47 | 33.63156 | -84.54168 | 36188 ft | 399 kts | 275° |
| 2026-05-04 10:49 | 33.63847 | -84.80231 | 36111 ft | 384 kts | 274° |
| 2026-05-04 10:50 | 33.63990 | -84.86692 | 36144 ft | 390 kts | 274° |
| 2026-05-04 10:52 | 33.64548 | -85.11903 | 36186 ft | 395 kts | 274° |
| 2026-05-04 10:52 | 33.64680 | -85.18444 | 36212 ft | 394 kts | 274° |
| 2026-05-04 10:54 | 33.65197 | -85.44781 | 36200 ft | 394 kts | 273° |
| 2026-05-04 10:56 | 33.65648 | -85.71043 | 36104 ft | 395 kts | 273° |
| 2026-05-04 10:57 | 33.65748 | -85.77577 | 36102 ft | 394 kts | 273° |
| 2026-05-04 10:57 | 33.65854 | -85.84152 | 36089 ft | 394 kts | 273° |
| 2026-05-04 10:58 | 33.65959 | -85.90728 | 36089 ft | 394 kts | 273° |
| 2026-05-04 10:58 | 33.66049 | -85.97307 | 36094 ft | 394 kts | 273° |
| 2026-05-04 10:59 | 33.66135 | -86.03836 | 36111 ft | 394 kts | 273° |
| 2026-05-04 10:59 | 33.66219 | -86.10423 | 36106 ft | 395 kts | 273° |
| 2026-05-04 11:00 | 33.66307 | -86.17000 | 36153 ft | 394 kts | 273° |
| 2026-05-04 11:02 | 33.66605 | -86.43199 | 36182 ft | 393 kts | 273° |
| 2026-05-04 11:05 | 33.66791 | -86.92265 | 36154 ft | 395 kts | 267° |
| 2026-05-04 11:06 | 33.66073 | -86.98812 | 36185 ft | 395 kts | 266° |
| 2026-05-04 11:06 | 33.65334 | -87.05350 | 36176 ft | 395 kts | 266° |
| 2026-05-04 11:10 | 33.60289 | -87.50927 | 36114 ft | 394 kts | 266° |
| 2026-05-04 11:12 | 33.57341 | -87.76892 | 36162 ft | 394 kts | 266° |
| 2026-05-04 11:12 | 33.56595 | -87.83348 | 36165 ft | 393 kts | 266° |
| 2026-05-04 11:13 | 33.55841 | -87.89836 | 36130 ft | 393 kts | 266° |
| 2026-05-04 11:13 | 33.55083 | -87.96331 | 36090 ft | 394 kts | 266° |
| 2026-05-04 11:14 | 33.54328 | -88.02833 | 36072 ft | 394 kts | 266° |
| 2026-05-04 11:16 | 33.51268 | -88.28715 | 36110 ft | 392 kts | 266° |
| 2026-05-04 11:16 | 33.50499 | -88.35174 | 36075 ft | 392 kts | 266° |
| 2026-05-04 11:17 | 33.49729 | -88.41594 | 36034 ft | 392 kts | 266° |
| 2026-05-04 11:19 | 33.48464 | -88.67381 | 36111 ft | 387 kts | 272° |
| 2026-05-04 11:19 | 33.48409 | -88.73828 | 36125 ft | 387 kts | 272° |
| 2026-05-04 11:20 | 33.48359 | -88.80281 | 36119 ft | 387 kts | 273° |
| 2026-05-04 11:20 | 33.48311 | -88.86726 | 36118 ft | 387 kts | 272° |
| 2026-05-04 11:22 | 33.48078 | -89.12407 | 36095 ft | 386 kts | 272° |
| 2026-05-04 11:23 | 33.48014 | -89.18834 | 36086 ft | 386 kts | 272° |
| 2026-05-04 11:25 | 33.47754 | -89.41271 | 36110 ft | 386 kts | 272° |
| 2026-05-04 11:25 | 33.47673 | -89.47693 | 36120 ft | 385 kts | 272° |
| 2026-05-04 11:27 | 33.47268 | -89.76551 | 36083 ft | 386 kts | 272° |
| 2026-05-04 11:28 | 33.47169 | -89.82941 | 36064 ft | 386 kts | 272° |
| 2026-05-04 11:28 | 33.47064 | -89.89370 | 36048 ft | 386 kts | 272° |
| 2026-05-04 11:29 | 33.46959 | -89.95800 | 36043 ft | 386 kts | 272° |
| 2026-05-04 11:29 | 33.46852 | -90.02228 | 36035 ft | 386 kts | 272° |
| 2026-05-04 11:33 | 33.39564 | -90.46009 | 36031 ft | 398 kts | 253° |
| 2026-05-04 11:33 | 33.37349 | -90.52063 | 36054 ft | 397 kts | 253° |
| 2026-05-04 11:34 | 33.35096 | -90.58088 | 36041 ft | 397 kts | 252° |
| 2026-05-04 11:34 | 33.32861 | -90.64084 | 36031 ft | 397 kts | 253° |
| 2026-05-04 11:35 | 33.30610 | -90.70101 | 36052 ft | 396 kts | 253° |
| 2026-05-04 11:35 | 33.28366 | -90.76116 | 36079 ft | 395 kts | 253° |
| 2026-05-04 11:36 | 33.26117 | -90.82107 | 36093 ft | 395 kts | 253° |
| 2026-05-04 11:36 | 33.23880 | -90.88051 | 36096 ft | 395 kts | 253° |
| 2026-05-04 11:37 | 33.21629 | -90.94026 | 36061 ft | 395 kts | 253° |
| 2026-05-04 11:37 | 33.19369 | -91.00004 | 36019 ft | 395 kts | 253° |
| 2026-05-04 11:38 | 33.17118 | -91.05975 | 36019 ft | 394 kts | 253° |
| 2026-05-04 11:38 | 33.14867 | -91.11947 | 36021 ft | 395 kts | 253° |
| 2026-05-04 11:39 | 33.12617 | -91.17870 | 36056 ft | 394 kts | 253° |
| 2026-05-04 11:41 | 33.04681 | -91.38712 | 36111 ft | 394 kts | 253° |
| 2026-05-04 11:41 | 33.02418 | -91.44618 | 36115 ft | 394 kts | 253° |
| 2026-05-04 11:42 | 33.00149 | -91.50568 | 36122 ft | 394 kts | 253° |
| 2026-05-04 11:42 | 32.97871 | -91.56512 | 36128 ft | 394 kts | 253° |
| 2026-05-04 11:43 | 32.95592 | -91.62452 | 36133 ft | 394 kts | 253° |
| 2026-05-04 11:43 | 32.93323 | -91.68352 | 36135 ft | 395 kts | 252° |
| 2026-05-04 11:44 | 32.91033 | -91.74284 | 36137 ft | 394 kts | 252° |
| 2026-05-04 11:44 | 32.88750 | -91.80207 | 36138 ft | 394 kts | 252° |
| 2026-05-04 11:45 | 32.86461 | -91.86126 | 36112 ft | 394 kts | 252° |
| 2026-05-04 11:45 | 32.84175 | -91.92005 | 36085 ft | 394 kts | 252° |
| 2026-05-04 11:46 | 32.81881 | -91.97921 | 36079 ft | 394 kts | 252° |
| 2026-05-04 11:46 | 32.79588 | -92.03840 | 36060 ft | 394 kts | 252° |
| 2026-05-04 11:47 | 32.77284 | -92.09754 | 36056 ft | 395 kts | 252° |
| 2026-05-04 11:47 | 32.74988 | -92.15630 | 36059 ft | 395 kts | 252° |
| 2026-05-04 11:48 | 32.72678 | -92.21540 | 36064 ft | 394 kts | 252° |
| 2026-05-04 11:48 | 32.70375 | -92.27449 | 36069 ft | 395 kts | 252° |
| 2026-05-04 11:49 | 32.68051 | -92.33357 | 36085 ft | 395 kts | 252° |
| 2026-05-04 11:49 | 32.65748 | -92.39222 | 36100 ft | 395 kts | 252° |
| 2026-05-04 11:50 | 32.63436 | -92.45126 | 36116 ft | 395 kts | 252° |
| 2026-05-04 11:50 | 32.61114 | -92.51028 | 36118 ft | 395 kts | 252° |
| 2026-05-04 11:51 | 32.58780 | -92.56927 | 36117 ft | 395 kts | 252° |
| 2026-05-04 11:51 | 32.56446 | -92.62828 | 36113 ft | 395 kts | 252° |
| 2026-05-04 11:52 | 32.54128 | -92.68681 | 36120 ft | 395 kts | 252° |
| 2026-05-04 11:52 | 32.51796 | -92.74572 | 36115 ft | 395 kts | 252° |
| 2026-05-04 11:53 | 32.49456 | -92.80461 | 36108 ft | 395 kts | 252° |
| 2026-05-04 11:53 | 32.47111 | -92.86346 | 36085 ft | 396 kts | 252° |
| 2026-05-04 11:55 | 32.43643 | -93.11114 | 36066 ft | 383 kts | 269° |
| 2026-05-04 11:56 | 32.43130 | -93.17382 | 36091 ft | 383 kts | 269° |
| 2026-05-04 11:56 | 32.42647 | -93.23653 | 36121 ft | 382 kts | 269° |
| 2026-05-04 11:57 | 32.42163 | -93.29878 | 36128 ft | 383 kts | 269° |
| 2026-05-04 11:57 | 32.41665 | -93.36141 | 36124 ft | 383 kts | 269° |
| 2026-05-04 11:58 | 32.41165 | -93.42433 | 36123 ft | 383 kts | 269° |
| 2026-05-04 11:58 | 32.40662 | -93.48713 | 36090 ft | 383 kts | 269° |
| 2026-05-04 11:59 | 32.40158 | -93.54953 | 36070 ft | 384 kts | 269° |
| 2026-05-04 11:59 | 32.39647 | -93.61239 | 36053 ft | 384 kts | 269° |
| 2026-05-04 12:00 | 32.39133 | -93.67538 | 36033 ft | 385 kts | 269° |
| 2026-05-04 12:00 | 32.38615 | -93.73856 | 36027 ft | 386 kts | 269° |
| 2026-05-04 12:01 | 32.38091 | -93.80178 | 36052 ft | 386 kts | 269° |
| 2026-05-04 12:02 | 32.36239 | -94.02269 | 36116 ft | 387 kts | 269° |
| 2026-05-04 12:03 | 32.35702 | -94.08599 | 36109 ft | 387 kts | 269° |
| 2026-05-04 12:03 | 32.35161 | -94.14930 | 36102 ft | 387 kts | 269° |
| 2026-05-04 12:04 | 32.34620 | -94.21217 | 36106 ft | 387 kts | 269° |
| 2026-05-04 12:04 | 32.34072 | -94.27544 | 36110 ft | 387 kts | 269° |
| 2026-05-04 12:05 | 32.33523 | -94.33858 | 36111 ft | 385 kts | 269° |
| 2026-05-04 12:05 | 32.32972 | -94.40160 | 36082 ft | 385 kts | 269° |
| 2026-05-04 12:06 | 32.32417 | -94.46456 | 36044 ft | 385 kts | 269° |
| 2026-05-04 12:06 | 32.31860 | -94.52742 | 36022 ft | 384 kts | 269° |
| 2026-05-04 12:07 | 32.31305 | -94.58987 | 36011 ft | 385 kts | 269° |
| 2026-05-04 12:07 | 32.30743 | -94.65266 | 36035 ft | 384 kts | 269° |
| 2026-05-04 12:08 | 32.30178 | -94.71546 | 36021 ft | 385 kts | 269° |
| 2026-05-04 12:08 | 32.29609 | -94.77827 | 36035 ft | 384 kts | 269° |
| 2026-05-04 12:09 | 32.29041 | -94.84057 | 36089 ft | 383 kts | 269° |
| 2026-05-04 12:09 | 32.28468 | -94.90323 | 36089 ft | 384 kts | 269° |
| 2026-05-04 12:10 | 32.27891 | -94.96583 | 36101 ft | 384 kts | 269° |
| 2026-05-04 12:10 | 32.27304 | -95.02851 | 36101 ft | 384 kts | 268° |
| 2026-05-04 12:11 | 32.26631 | -95.09063 | 36100 ft | 383 kts | 268° |
| 2026-05-04 12:11 | 32.25942 | -95.15288 | 36103 ft | 381 kts | 270° |
| 2026-05-04 12:12 | 32.25298 | -95.21464 | 36098 ft | 375 kts | 271° |
| 2026-05-04 12:12 | 32.25264 | -95.27518 | 36092 ft | 365 kts | 278° |
| 2026-05-04 12:14 | 32.25930 | -95.51313 | 36056 ft | 366 kts | 278° |
| 2026-05-04 12:15 | 32.26076 | -95.57292 | 35704 ft | 362 kts | 277° |
| 2026-05-04 12:15 | 32.26146 | -95.60226 | 35457 ft | 362 kts | 277° |
| 2026-05-04 12:15 | 32.26219 | -95.63203 | 35211 ft | 363 kts | 277° |
| 2026-05-04 12:16 | 32.26292 | -95.66184 | 34965 ft | 364 kts | 277° |
| 2026-05-04 12:16 | 32.26364 | -95.69174 | 34718 ft | 365 kts | 277° |
| 2026-05-04 12:16 | 32.26434 | -95.72173 | 34453 ft | 366 kts | 276° |
| 2026-05-04 12:16 | 32.26503 | -95.75178 | 33957 ft | 366 kts | 276° |
| 2026-05-04 12:17 | 32.26568 | -95.78195 | 33294 ft | 368 kts | 276° |
| 2026-05-04 12:17 | 32.26635 | -95.81216 | 32663 ft | 368 kts | 276° |
| 2026-05-04 12:17 | 32.26700 | -95.84243 | 32017 ft | 369 kts | 275° |
| 2026-05-04 12:17 | 32.26765 | -95.87279 | 31368 ft | 370 kts | 275° |
| 2026-05-04 12:18 | 32.26829 | -95.90278 | 30729 ft | 371 kts | 275° |
| 2026-05-04 12:18 | 32.26894 | -95.93323 | 30053 ft | 371 kts | 274° |
| 2026-05-04 12:18 | 32.26958 | -95.96370 | 29540 ft | 372 kts | 274° |
| 2026-05-04 12:18 | 32.27025 | -95.99431 | 29193 ft | 373 kts | 274° |
| 2026-05-04 12:19 | 32.27092 | -96.02485 | 28709 ft | 370 kts | 274° |
| 2026-05-04 12:19 | 32.27158 | -96.05507 | 28194 ft | 367 kts | 274° |
| 2026-05-04 12:19 | 32.27222 | -96.08508 | 27661 ft | 364 kts | 274° |
| 2026-05-04 12:19 | 32.27284 | -96.11488 | 27113 ft | 362 kts | 274° |
| 2026-05-04 12:20 | 32.27345 | -96.14415 | 26561 ft | 360 kts | 274° |
| 2026-05-04 12:20 | 32.27405 | -96.17361 | 25992 ft | 358 kts | 274° |
| 2026-05-04 12:20 | 32.27465 | -96.20296 | 25417 ft | 357 kts | 274° |
| 2026-05-04 12:20 | 32.27524 | -96.23224 | 24834 ft | 356 kts | 274° |
| 2026-05-04 12:21 | 32.27582 | -96.26138 | 24249 ft | 355 kts | 274° |
| 2026-05-04 12:21 | 32.27712 | -96.29039 | 23670 ft | 352 kts | 279° |
| 2026-05-04 12:21 | 32.28271 | -96.31833 | 23121 ft | 348 kts | 290° |
| 2026-05-04 12:21 | 32.29372 | -96.34358 | 22667 ft | 345 kts | 303° |
| 2026-05-04 12:22 | 32.30936 | -96.36487 | 22219 ft | 343 kts | 312° |
| 2026-05-04 12:22 | 32.32647 | -96.38388 | 21725 ft | 341 kts | 314° |
| 2026-05-04 12:22 | 32.34394 | -96.40278 | 21185 ft | 340 kts | 314° |
| 2026-05-04 12:22 | 32.36120 | -96.42186 | 20634 ft | 339 kts | 313° |
| 2026-05-04 12:23 | 32.37813 | -96.44116 | 20099 ft | 337 kts | 312° |
| 2026-05-04 12:23 | 32.39486 | -96.46061 | 19537 ft | 337 kts | 312° |
| 2026-05-04 12:23 | 32.41155 | -96.48004 | 18981 ft | 336 kts | 312° |
| 2026-05-04 12:23 | 32.42824 | -96.49935 | 18459 ft | 335 kts | 312° |
| 2026-05-04 12:24 | 32.44491 | -96.51854 | 17955 ft | 333 kts | 313° |
| 2026-05-04 12:24 | 32.46152 | -96.53762 | 17444 ft | 332 kts | 313° |
| 2026-05-04 12:24 | 32.47785 | -96.55641 | 17153 ft | 321 kts | 313° |
| 2026-05-04 12:24 | 32.49338 | -96.57427 | 16913 ft | 312 kts | 313° |
| 2026-05-04 12:25 | 32.50886 | -96.59204 | 16538 ft | 308 kts | 313° |
| 2026-05-04 12:25 | 32.52421 | -96.60962 | 16136 ft | 306 kts | 313° |
| 2026-05-04 12:25 | 32.53930 | -96.62689 | 15734 ft | 303 kts | 313° |
| 2026-05-04 12:25 | 32.55456 | -96.64438 | 15322 ft | 301 kts | 313° |
| 2026-05-04 12:26 | 32.56958 | -96.66160 | 14914 ft | 299 kts | 313° |
| 2026-05-04 12:26 | 32.58454 | -96.67866 | 14513 ft | 298 kts | 313° |
| 2026-05-04 12:26 | 32.59952 | -96.69549 | 14138 ft | 294 kts | 314° |
| 2026-05-04 12:26 | 32.61410 | -96.71182 | 13984 ft | 282 kts | 314° |
| 2026-05-04 12:27 | 32.62787 | -96.72723 | 13808 ft | 272 kts | 314° |
| 2026-05-04 12:27 | 32.64149 | -96.74257 | 13476 ft | 268 kts | 314° |
| 2026-05-04 12:27 | 32.65485 | -96.75769 | 13169 ft | 264 kts | 314° |
| 2026-05-04 12:27 | 32.66805 | -96.77262 | 12910 ft | 260 kts | 314° |
| 2026-05-04 12:28 | 32.68102 | -96.78733 | 12675 ft | 255 kts | 313° |
| 2026-05-04 12:28 | 32.69380 | -96.80187 | 12433 ft | 257 kts | 314° |
| 2026-05-04 12:28 | 32.70689 | -96.81675 | 12190 ft | 263 kts | 314° |
| 2026-05-04 12:28 | 32.72019 | -96.83184 | 12007 ft | 266 kts | 314° |
| 2026-05-04 12:29 | 32.73360 | -96.84702 | 12011 ft | 267 kts | 314° |
| 2026-05-04 12:29 | 32.74683 | -96.86203 | 12017 ft | 267 kts | 314° |
| 2026-05-04 12:29 | 32.76021 | -96.87728 | 12019 ft | 266 kts | 314° |
| 2026-05-04 12:29 | 32.77357 | -96.89251 | 12021 ft | 266 kts | 314° |
| 2026-05-04 12:30 | 32.78725 | -96.90736 | 12015 ft | 266 kts | 321° |
| 2026-05-04 12:30 | 32.80384 | -96.91588 | 11940 ft | 260 kts | 347° |
| 2026-05-04 12:30 | 32.82165 | -96.91637 | 11867 ft | 252 kts | 358° |
| 2026-05-04 12:30 | 32.83879 | -96.91492 | 11693 ft | 243 kts | 358° |
| 2026-05-04 12:31 | 32.85562 | -96.91412 | 11300 ft | 242 kts | 355° |
| 2026-05-04 12:31 | 32.87248 | -96.91434 | 10874 ft | 243 kts | 354° |
| 2026-05-04 12:31 | 32.88941 | -96.91457 | 10456 ft | 244 kts | 355° |
| 2026-05-04 12:31 | 32.90623 | -96.91439 | 10043 ft | 246 kts | 356° |
| 2026-05-04 12:32 | 32.92337 | -96.91409 | 9625 ft | 247 kts | 355° |
| 2026-05-04 12:32 | 32.95780 | -96.91396 | 8787 ft | 249 kts | 355° |
| 2026-05-04 12:32 | 32.97513 | -96.91386 | 8387 ft | 249 kts | 355° |
| 2026-05-04 12:33 | 32.99244 | -96.91373 | 8000 ft | 249 kts | 356° |
| 2026-05-04 12:33 | 33.00973 | -96.91348 | 7622 ft | 248 kts | 357° |
| 2026-05-04 12:33 | 33.02696 | -96.91291 | 7237 ft | 247 kts | 357° |
| 2026-05-04 12:33 | 33.04414 | -96.91256 | 6855 ft | 247 kts | 355° |
| 2026-05-04 12:34 | 33.06102 | -96.91263 | 6479 ft | 246 kts | 355° |
| 2026-05-04 12:34 | 33.07813 | -96.91269 | 6095 ft | 246 kts | 355° |
| 2026-05-04 12:34 | 33.09519 | -96.91322 | 5690 ft | 243 kts | 345° |
| 2026-05-04 12:34 | 33.11019 | -96.92070 | 5262 ft | 230 kts | 315° |
| 2026-05-04 12:35 | 33.12002 | -96.93492 | 4860 ft | 218 kts | 290° |
| 2026-05-04 12:35 | 33.12390 | -96.95180 | 4460 ft | 208 kts | 267° |
| 2026-05-04 12:35 | 33.12203 | -96.96851 | 4066 ft | 201 kts | 246° |
| 2026-05-04 12:35 | 33.11520 | -96.98266 | 3694 ft | 195 kts | 226° |
| 2026-05-04 12:36 | 33.10486 | -96.99244 | 3341 ft | 192 kts | 207° |
| 2026-05-04 12:36 | 33.09269 | -96.99873 | 3031 ft | 190 kts | 201° |
| 2026-05-04 12:36 | 33.08030 | -97.00448 | 3006 ft | 192 kts | 202° |
| 2026-05-04 12:36 | 33.06833 | -97.01054 | 3034 ft | 179 kts | 204° |
| 2026-05-04 12:37 | 33.05759 | -97.01633 | 3009 ft | 161 kts | 204° |
| 2026-05-04 12:37 | 33.04771 | -97.02157 | 3006 ft | 151 kts | 204° |
| 2026-05-04 12:37 | 33.03767 | -97.02513 | 2944 ft | 152 kts | 188° |
| 2026-05-04 12:37 | 33.02720 | -97.02539 | 2789 ft | 153 kts | 183° |
| 2026-05-04 12:38 | 33.01661 | -97.02536 | 2589 ft | 150 kts | 184° |
| 2026-05-04 12:38 | 33.00675 | -97.02545 | 2427 ft | 135 kts | 184° |
| 2026-05-04 12:38 | 32.99752 | -97.02553 | 2244 ft | 131 kts | 184° |
| 2026-05-04 12:38 | 32.98840 | -97.02556 | 2065 ft | 131 kts | 184° |
| 2026-05-04 12:39 | 32.97931 | -97.02563 | 1883 ft | 131 kts | 181° |
| 2026-05-04 12:39 | 32.97028 | -97.02567 | 1714 ft | 129 kts | 181° |
| 2026-05-04 12:39 | 32.96130 | -97.02570 | 1551 ft | 129 kts | 181° |
| 2026-05-04 12:39 | 32.95235 | -97.02573 | 1402 ft | 129 kts | 181° |
| 2026-05-04 12:40 | 32.94353 | -97.02579 | 1230 ft | 128 kts | 181° |
| 2026-05-04 12:40 | 32.93463 | -97.02577 | 1035 ft | 128 kts | 181° |
| 2026-05-04 12:40 | 32.92579 | -97.02587 | 857 ft | 127 kts | 181° |
| 2026-05-04 12:40 | 32.91697 | -97.02596 | 701 ft | 127 kts | 181° |
| 2026-05-04 12:41 | 32.90846 | -97.02601 | 622 ft | 107 kts | 181° |
| 2026-05-04 12:41 | 32.90397 | -97.02604 | 622 ft | 37 kts | 181° |
| 2026-05-04 12:41 | 32.90179 | -97.02607 | 622 ft | 16 kts | 180° |
| 2026-05-04 12:41 | 32.90112 | -97.02638 | 622 ft | 9 kts | 245° |
| 2026-05-04 12:42 | 32.90106 | -97.02726 | 622 ft | 12 kts | 272° |
| 2026-05-04 12:42 | 32.90160 | -97.02795 | 622 ft | 15 kts | 0° |
| 2026-05-04 12:42 | 32.90276 | -97.02791 | 622 ft | 19 kts | 0° |
| 2026-05-04 12:42 | 32.90405 | -97.02790 | 622 ft | 14 kts | 0° |
| 2026-05-04 12:43 | 32.90465 | -97.02840 | 622 ft | 13 kts | 273° |
| 2026-05-04 12:43 | 32.90468 | -97.02961 | 622 ft | 16 kts | 271° |
| 2026-05-04 12:43 | 32.90469 | -97.03108 | 622 ft | 19 kts | 270° |
| 2026-05-04 12:43 | 32.90469 | -97.03277 | 622 ft | 13 kts | 269° |
| 2026-05-04 12:44 | 32.90439 | -97.03376 | 622 ft | 14 kts | 218° |
| 2026-05-04 12:44 | 32.90353 | -97.03441 | 622 ft | 12 kts | 210° |
| 2026-05-04 12:44 | 32.90318 | -97.03489 | 622 ft | 8 kts | 272° |
| 2026-05-04 12:44 | 32.90331 | -97.03536 | 622 ft | 0 kts | 300° |